Time;durP1;ratioP1;P1;durP2;ratioP2;P2;SDS_P1;SDS_P2;PMS_P1;PMS_P2;Temp;Humidity;BMP_temperature;BMP_pressure;BME280_temperature;BME280_humidity;BME280_pressure;Samples;Min_cycle;Max_cycle;Signal;HPM_P1;HPM_P2
2023/09/29 00:01:18;;;;;;;4.75;3.10;;;18.30;99.90;;;;;;1951340;72;22317;-81
2023/09/29 00:06:54;;;;;;;6.60;3.35;;;18.20;99.90;;;;;;1924806;72;22193;-79
2023/09/29 00:12:24;;;;;;;4.70;3.42;;;18.10;99.90;;;;;;1928266;72;22247;-79
2023/09/29 00:15:16;;;;;;;5.08;3.30;;;18.10;99.90;;;;;;1907259;75;21090;-80
2023/09/29 00:18:08;;;;;;;5.87;3.58;;;18.10;99.90;;;;;;1916933;75;21095;-79
2023/09/29 00:21:00;;;;;;;5.10;3.62;;;18.00;99.90;;;;;;1892970;75;21090;-79
2023/09/29 00:23:52;;;;;;;3.75;2.90;;;18.00;99.90;;;;;;1906250;75;21582;-79
2023/09/29 00:26:44;;;;;;;4.50;3.72;;;17.90;99.90;;;;;;1906234;75;21156;-79
2023/09/29 00:32:15;;;;;;;5.30;3.12;;;18.00;99.90;;;;;;1962334;72;22309;-79
2023/09/29 00:35:11;;;;;;;5.40;3.58;;;18.00;99.90;;;;;;1921900;74;21094;-79
2023/09/29 00:40:38;;;;;;;5.05;3.47;;;18.00;99.90;;;;;;1945580;72;23210;-79
2023/09/29 00:46:09;;;;;;;7.30;3.65;;;17.90;99.90;;;;;;1950994;72;22168;-79
2023/09/29 00:49:04;;;;;;;4.50;3.55;;;17.90;99.90;;;;;;1941218;72;21094;-79
2023/09/29 00:51:53;;;;;;;4.30;3.00;;;17.90;99.90;;;;;;1917188;75;21545;-79
2023/09/29 00:54:47;;;;;;;5.37;2.92;;;17.90;99.90;;;;;;1926743;73;21135;-79
2023/09/29 00:57:40;;;;;;;5.00;2.60;;;17.80;99.90;;;;;;1925753;73;21176;-80
2023/09/29 01:03:15;;;;;;;5.70;3.70;;;17.60;99.90;;;;;;1951522;72;22245;-79
2023/09/29 01:11:28;;;;;;;5.05;2.98;;;17.40;99.90;;;;;;1939950;72;22784;-81
2023/09/29 01:17:03;;;;;;;4.42;3.05;;;17.40;99.90;;;;;;1927862;72;23191;-79
2023/09/29 01:22:33;;;;;;;4.35;3.05;;;17.40;99.90;;;;;;1953239;72;22248;-79
2023/09/29 01:25:27;;;;;;;6.85;3.20;;;17.40;99.90;;;;;;1934135;73;21079;-79
2023/09/29 01:28:18;;;;;;;6.40;3.65;;;17.30;99.90;;;;;;1917127;75;21130;-79
2023/09/29 01:31:11;;;;;;;4.72;3.20;;;17.40;99.90;;;;;;1917184;75;21172;-79
2023/09/29 01:34:05;;;;;;;4.55;3.15;;;17.40;99.90;;;;;;1916790;75;21110;-79
2023/09/29 01:36:57;;;;;;;6.00;3.37;;;17.40;99.90;;;;;;1919546;75;21095;-80
2023/09/29 01:39:48;;;;;;;5.78;3.25;;;17.30;99.90;;;;;;1939796;73;21103;-79
2023/09/29 01:42:40;;;;;;;4.55;2.80;;;17.30;99.90;;;;;;1918733;75;21345;-79
2023/09/29 01:45:33;;;;;;;5.22;3.47;;;17.30;99.90;;;;;;1917144;75;21545;-79
2023/09/29 01:48:25;;;;;;;4.95;2.98;;;17.20;99.90;;;;;;1916975;75;21104;-79
2023/09/29 01:51:17;;;;;;;4.25;2.85;;;17.20;99.90;;;;;;1920108;73;21113;-79
2023/09/29 01:54:09;;;;;;;4.30;3.02;;;17.20;99.90;;;;;;1916716;75;21114;-79
2023/09/29 01:57:01;;;;;;;4.53;2.92;;;17.30;99.90;;;;;;1916891;75;21341;-80
2023/09/29 02:02:32;;;;;;;3.77;3.00;;;17.20;99.90;;;;;;1948323;72;22281;-79
2023/09/29 02:08:06;;;;;;;3.22;2.90;;;17.10;99.90;;;;;;1922931;72;22212;-79
2023/09/29 02:13:36;;;;;;;3.95;3.27;;;17.10;99.90;;;;;;1929620;72;22236;-79
2023/09/29 02:19:07;;;;;;;5.12;3.37;;;17.10;99.90;;;;;;1945097;72;22550;-81
2023/09/29 02:21:59;;;;;;;5.40;3.40;;;17.10;99.90;;;;;;1883699;75;21091;-81
2023/09/29 02:24:50;;;;;;;4.47;2.92;;;17.20;99.90;;;;;;1892008;75;21091;-80
2023/09/29 02:30:20;;;;;;;3.95;3.12;;;17.30;99.90;;;;;;1971027;72;22566;-79
2023/09/29 02:35:51;;;;;;;3.67;2.80;;;17.30;99.90;;;;;;1951096;72;22621;-79
2023/09/29 02:41:25;;;;;;;5.70;3.15;;;17.30;99.90;;;;;;1930052;72;22148;-79
2023/09/29 02:44:16;;;;;;;4.08;3.30;;;17.20;99.90;;;;;;1903496;74;21167;-79
2023/09/29 02:47:08;;;;;;;5.33;3.25;;;17.20;99.90;;;;;;1887412;75;21066;-79
2023/09/29 02:50:00;;;;;;;5.28;3.30;;;17.20;99.90;;;;;;1908114;75;21663;-79
2023/09/29 02:52:51;;;;;;;3.85;3.27;;;17.20;99.90;;;;;;1887983;75;21109;-79
2023/09/29 02:58:22;;;;;;;8.43;3.30;;;17.20;99.90;;;;;;1932368;72;22105;-79
2023/09/29 03:01:16;;;;;;;8.00;3.25;;;17.20;99.90;;;;;;1926802;73;21179;-79
2023/09/29 03:06:46;;;;;;;3.85;3.08;;;17.10;99.90;;;;;;1957355;72;22174;-81
2023/09/29 03:12:18;;;;;;;6.85;3.47;;;17.00;99.90;;;;;;1934138;72;22270;-81
2023/09/29 03:15:15;;;;;;;5.08;3.47;;;16.90;99.90;;;;;;1901782;75;21183;-79
2023/09/29 03:20:43;;;;;;;4.20;3.60;;;16.90;99.90;;;;;;1946403;72;22173;-79
2023/09/29 03:26:21;;;;;;;5.28;3.05;;;16.70;99.90;;;;;;1954750;72;22157;-79
2023/09/29 03:29:11;;;;;;;5.45;3.70;;;16.70;99.90;;;;;;1898549;74;21191;-79
2023/09/29 03:32:03;;;;;;;5.33;3.55;;;16.70;99.90;;;;;;1885009;75;21173;-79
2023/09/29 03:37:36;;;;;;;4.80;3.60;;;16.70;99.90;;;;;;1963088;72;22199;-79
2023/09/29 03:40:27;;;;;;;4.58;3.05;;;16.70;99.90;;;;;;1917293;73;21148;-80
2023/09/29 03:43:19;;;;;;;5.67;3.33;;;16.70;99.90;;;;;;1935748;73;21145;-79
2023/09/29 03:46:20;;;;;;;5.45;3.10;;;16.60;99.90;;;;;;1949833;73;21148;-79
2023/09/29 03:49:12;;;;;;;6.00;3.30;;;16.60;99.90;;;;;;1916874;75;21123;-79
2023/09/29 03:52:06;;;;;;;6.80;3.47;;;16.60;99.90;;;;;;1916744;75;21076;-79
2023/09/29 03:57:44;;;;;;;5.47;2.98;;;16.60;99.90;;;;;;1943062;72;22125;-81
2023/09/29 04:00:36;;;;;;;5.20;3.75;;;16.60;99.90;;;;;;1934203;73;21153;-81
2023/09/29 04:03:27;;;;;;;4.10;3.67;;;16.50;99.90;;;;;;1939110;73;21171;-80
2023/09/29 04:06:18;;;;;;;4.60;3.70;;;16.50;99.90;;;;;;1919716;74;21066;-80
2023/09/29 04:09:10;;;;;;;4.60;3.50;;;16.50;99.90;;;;;;1935550;73;21155;-80
2023/09/29 04:12:02;;;;;;;5.17;3.70;;;16.50;99.90;;;;;;1919087;73;21174;-80
2023/09/29 04:14:53;;;;;;;7.33;3.65;;;16.60;99.90;;;;;;1927470;73;21050;-80
2023/09/29 04:20:23;;;;;;;4.45;3.35;;;16.50;99.90;;;;;;1953269;72;22133;-79
2023/09/29 04:25:57;;;;;;;5.62;3.20;;;16.50;99.90;;;;;;1947415;72;22260;-79
2023/09/29 04:28:50;;;;;;;5.67;3.40;;;16.50;99.90;;;;;;1902005;75;21106;-80
2023/09/29 04:31:41;;;;;;;5.85;3.37;;;16.40;99.90;;;;;;1884199;76;21110;-81
2023/09/29 04:34:33;;;;;;;5.92;3.72;;;16.40;99.90;;;;;;1909565;75;21102;-79
2023/09/29 04:37:24;;;;;;;4.97;3.50;;;16.50;99.90;;;;;;1895470;75;21144;-79
2023/09/29 04:45:36;;;;;;;5.58;3.60;;;16.40;99.90;;;;;;1955132;72;22298;-79
2023/09/29 04:48:28;;;;;;;5.55;3.60;;;16.40;99.90;;;;;;1888004;74;21224;-79
2023/09/29 04:51:19;;;;;;;6.67;3.65;;;16.50;99.90;;;;;;1884783;75;21195;-80
2023/09/29 04:54:10;;;;;;;4.90;3.55;;;16.40;99.90;;;;;;1898623;75;21496;-80
2023/09/29 04:59:41;;;;;;;5.60;3.62;;;16.40;99.90;;;;;;1931995;72;22252;-80
2023/09/29 05:02:32;;;;;;;3.95;3.40;;;16.40;99.90;;;;;;1905200;75;21158;-80
2023/09/29 05:05:23;;;;;;;5.17;3.80;;;16.40;99.90;;;;;;1886470;75;21161;-79
2023/09/29 05:10:52;;;;;;;4.80;3.45;;;16.30;99.90;;;;;;1949230;72;22150;-81
2023/09/29 05:16:25;;;;;;;4.70;3.45;;;16.30;99.90;;;;;;1963727;72;22217;-81
2023/09/29 05:19:16;;;;;;;7.60;3.60;;;16.40;99.90;;;;;;1928453;73;21542;-81
2023/09/29 05:22:08;;;;;;;4.78;3.45;;;16.40;99.90;;;;;;1939428;73;21128;-80
2023/09/29 05:30:21;;;;;;;5.00;3.52;;;16.40;99.90;;;;;;1931398;72;22252;-80
2023/09/29 05:33:13;;;;;;;6.03;3.62;;;16.40;99.90;;;;;;1892251;75;21107;-80
2023/09/29 05:36:05;;;;;;;7.42;3.90;;;16.40;99.90;;;;;;1899871;75;21168;-80
2023/09/29 05:41:37;;;;;;;5.12;3.80;;;16.40;99.90;;;;;;1934241;72;22777;-81
2023/09/29 05:44:28;;;;;;;6.60;3.87;;;16.40;99.90;;;;;;1918471;73;21143;-81
2023/09/29 05:47:21;;;;;;;7.17;4.15;;;16.40;99.90;;;;;;1927454;73;21518;-79
2023/09/29 05:52:53;;;;;;;5.53;3.77;;;16.40;99.90;;;;;;1951499;72;22301;-79
2023/09/29 05:55:46;;;;;;;5.85;3.70;;;16.40;99.90;;;;;;1902398;73;21151;-79
2023/09/29 05:58:39;;;;;;;5.53;3.90;;;16.40;99.90;;;;;;1917613;74;21188;-80
2023/09/29 06:01:30;;;;;;;4.08;3.52;;;16.40;99.90;;;;;;1915927;74;21166;-80
2023/09/29 06:07:04;;;;;;;5.28;3.75;;;16.30;99.90;;;;;;1941619;72;22669;-81
2023/09/29 06:09:55;;;;;;;8.58;3.52;;;16.30;99.90;;;;;;1932163;73;21114;-81
2023/09/29 06:15:28;;;;;;;7.40;3.72;;;16.30;99.90;;;;;;1915967;72;22173;-81
2023/09/29 06:21:00;;;;;;;6.50;3.45;;;16.40;99.90;;;;;;1939727;72;22198;-79
2023/09/29 06:23:51;;;;;;;5.17;3.60;;;16.40;99.90;;;;;;1886819;75;21190;-81
2023/09/29 06:26:43;;;;;;;7.03;3.55;;;16.40;99.90;;;;;;1890454;75;21596;-81
2023/09/29 06:29:34;;;;;;;6.33;3.80;;;16.50;99.90;;;;;;1871861;75;21171;-79
2023/09/29 06:41:10;;;;;;;7.35;4.70;;;16.60;99.90;;;;;;1959489;72;22263;-81
2023/09/29 06:46:40;;;;;;;9.08;4.17;;;16.60;99.90;;;;;;1948040;72;22155;-81
2023/09/29 06:49:32;;;;;;;5.17;3.50;;;16.60;99.90;;;;;;1932624;73;21114;-81
2023/09/29 06:52:24;;;;;;;7.22;3.55;;;16.60;99.90;;;;;;1917104;73;21113;-80
2023/09/29 06:55:16;;;;;;;6.45;3.90;;;16.70;99.90;;;;;;1946830;73;21098;-80
2023/09/29 07:00:51;;;;;;;7.17;3.83;;;16.80;99.90;;;;;;1932960;72;22679;-81
2023/09/29 07:06:25;;;;;;;6.70;3.80;;;16.70;99.90;;;;;;1927259;72;22174;-81
2023/09/29 07:12:01;;;;;;;9.23;4.22;;;16.80;99.90;;;;;;1940975;72;22163;-81
2023/09/29 07:20:54;;;;;;;5.17;3.87;;;17.10;99.90;;;;;;1955078;72;22210;-81
2023/09/29 07:26:45;;;;;;;6.37;4.10;;;17.30;99.90;;;;;;1945808;72;22629;-81
2023/09/29 07:29:37;;;;;;;7.92;3.80;;;17.40;99.90;;;;;;1923934;73;21179;-80
2023/09/29 07:32:30;;;;;;;7.22;4.35;;;17.40;99.90;;;;;;1915894;75;21134;-79
2023/09/29 07:35:21;;;;;;;10.75;4.55;;;17.50;99.90;;;;;;1916690;73;21126;-80
2023/09/29 07:40:54;;;;;;;7.42;4.00;;;17.60;99.90;;;;;;1945954;72;22213;-82
2023/09/29 07:43:45;;;;;;;9.35;4.50;;;17.70;99.90;;;;;;1892743;75;21143;-80
2023/09/29 07:46:39;;;;;;;7.97;3.83;;;17.80;99.90;;;;;;1896760;75;21114;-80
2023/09/29 07:52:10;;;;;;;5.95;3.70;;;17.90;99.90;;;;;;1958419;72;22413;-80
2023/09/29 07:55:01;;;;;;;6.10;3.87;;;17.90;99.90;;;;;;1913413;74;21224;-81
2023/09/29 08:00:32;;;;;;;6.92;3.45;;;18.00;99.90;;;;;;1954773;72;22495;-82
2023/09/29 08:06:03;;;;;;;5.90;3.62;;;18.20;99.90;;;;;;1932584;72;22188;-82
2023/09/29 08:08:54;;;;;;;6.75;3.80;;;18.30;99.90;;;;;;1887874;75;21099;-81
2023/09/29 08:11:48;;;;;;;6.42;3.15;;;18.30;99.90;;;;;;1881108;75;21160;-81
2023/09/29 08:14:40;;;;;;;8.65;3.12;;;18.40;99.90;;;;;;1900826;75;21118;-81
2023/09/29 08:17:31;;;;;;;7.90;3.98;;;18.40;99.90;;;;;;1879552;75;21098;-81
2023/09/29 08:20:23;;;;;;;9.50;3.90;;;18.50;99.90;;;;;;1891172;75;21501;-80
2023/09/29 08:26:05;;;;;;;7.85;3.67;;;18.60;99.90;;;;;;1934853;72;22150;-81
2023/09/29 08:28:59;;;;;;;8.30;3.70;;;18.70;99.90;;;;;;1888914;75;21189;-81
2023/09/29 08:34:34;;;;;;;4.78;3.58;;;18.80;99.90;;;;;;1936023;72;22402;-79
2023/09/29 08:37:23;;;;;;;6.15;3.90;;;18.90;99.90;;;;;;1878148;75;21174;-80
2023/09/29 08:40:18;;;;;;;7.08;3.20;;;19.00;99.90;;;;;;1876477;76;21570;-80
2023/09/29 08:43:14;;;;;;;8.60;3.30;;;19.00;99.90;;;;;;1876973;76;21483;-80
2023/09/29 08:46:09;;;;;;;7.87;3.65;;;19.10;99.90;;;;;;1876803;76;21121;-80
2023/09/29 08:49:03;;;;;;;7.28;3.10;;;19.20;99.90;;;;;;1876849;76;21216;-80
2023/09/29 08:51:55;;;;;;;4.33;3.47;;;19.20;99.90;;;;;;1876718;76;21122;-80
2023/09/29 08:54:47;;;;;;;7.17;3.55;;;19.30;99.90;;;;;;1876825;76;21097;-80
2023/09/29 08:57:41;;;;;;;5.40;3.40;;;19.30;99.90;;;;;;1877241;76;21168;-80
2023/09/29 09:00:33;;;;;;;10.03;4.70;;;19.40;99.90;;;;;;1876906;76;21110;-82
2023/09/29 09:03:26;;;;;;;4.35;2.98;;;19.40;99.90;;;;;;1876900;76;21125;-83
2023/09/29 09:06:25;;;;;;;4.80;3.05;;;19.50;99.90;;;;;;1876911;76;21191;-83
2023/09/29 09:09:23;;;;;;;5.90;3.00;;;19.50;99.90;;;;;;1877095;76;21098;-83
2023/09/29 09:12:14;;;;;;;7.97;3.62;;;19.60;99.90;;;;;;1877324;76;21189;-83
2023/09/29 09:15:08;;;;;;;3.62;2.75;;;19.70;99.90;;;;;;1877224;76;21196;-83
2023/09/29 09:18:01;;;;;;;4.22;2.98;;;19.80;99.90;;;;;;1877207;76;21196;-83
2023/09/29 09:20:54;;;;;;;5.62;3.17;;;19.90;99.90;;;;;;1877006;76;21118;-83
2023/09/29 09:23:46;;;;;;;5.42;3.10;;;20.00;99.90;;;;;;1876964;76;21175;-83
2023/09/29 09:26:37;;;;;;;4.62;2.80;;;20.10;99.90;;;;;;1876801;76;21204;-84
2023/09/29 09:29:30;;;;;;;6.15;3.08;;;20.20;99.90;;;;;;1876861;76;21075;-84
2023/09/29 09:32:28;;;;;;;2.95;2.62;;;20.30;99.90;;;;;;1876970;76;21192;-84
2023/09/29 09:35:27;;;;;;;4.90;2.45;;;20.40;99.90;;;;;;1876888;76;21214;-83
2023/09/29 09:38:19;;;;;;;4.72;2.58;;;20.50;99.90;;;;;;1876801;76;21114;-83
2023/09/29 09:41:11;;;;;;;6.03;2.98;;;20.60;99.90;;;;;;1876802;76;21166;-83
2023/09/29 09:44:02;;;;;;;4.62;2.87;;;20.70;99.90;;;;;;1876675;76;21147;-83
2023/09/29 09:47:00;;;;;;;5.72;2.70;;;20.80;99.90;;;;;;1876018;76;21205;-83
2023/09/29 09:49:51;;;;;;;5.15;2.65;;;20.90;99.90;;;;;;1876188;76;21086;-84
2023/09/29 09:52:44;;;;;;;4.15;2.85;;;21.00;99.90;;;;;;1876636;76;21161;-83
2023/09/29 09:55:39;;;;;;;4.92;2.83;;;21.00;99.90;;;;;;1876478;76;21561;-84
2023/09/29 09:58:32;;;;;;;4.15;2.33;;;21.10;99.90;;;;;;1876516;76;21110;-84
2023/09/29 10:01:25;;;;;;;4.97;2.87;;;21.10;99.90;;;;;;1876539;76;21122;-83
2023/09/29 10:04:18;;;;;;;4.87;2.70;;;21.20;99.90;;;;;;1876186;76;21113;-83
2023/09/29 10:07:10;;;;;;;7.22;4.00;;;21.40;99.90;;;;;;1876253;76;21148;-83
2023/09/29 10:10:04;;;;;;;5.78;2.83;;;21.40;99.90;;;;;;1876257;76;21129;-84
2023/09/29 10:12:59;;;;;;;3.87;2.30;;;21.50;99.90;;;;;;1876315;76;21596;-83
2023/09/29 10:16:01;;;;;;;3.37;2.42;;;21.60;99.90;;;;;;1876558;76;21200;-83
2023/09/29 10:18:58;;;;;;;3.80;2.60;;;21.60;99.90;;;;;;1876526;76;21184;-83
2023/09/29 10:21:50;;;;;;;3.90;2.55;;;21.70;99.90;;;;;;1876536;76;21070;-83
2023/09/29 10:24:41;;;;;;;5.00;2.37;;;21.90;99.90;;;;;;1876322;76;21122;-83
2023/09/29 10:27:34;;;;;;;4.33;2.20;;;22.00;99.90;;;;;;1876280;76;21102;-83
2023/09/29 10:30:27;;;;;;;5.33;2.58;;;22.00;99.90;;;;;;1876450;76;21217;-83
2023/09/29 10:33:19;;;;;;;5.17;2.40;;;22.00;99.90;;;;;;1876187;76;21117;-83
2023/09/29 10:36:11;;;;;;;3.62;2.58;;;22.20;99.90;;;;;;1884877;76;21129;-85
2023/09/29 10:39:04;;;;;;;4.65;2.37;;;22.20;99.90;;;;;;1885721;76;21110;-83
2023/09/29 10:42:12;;;;;;;4.72;2.33;;;22.30;99.90;;;;;;1885264;76;21166;-83
2023/09/29 10:44:57;;;;;;;5.28;2.30;;;22.40;99.90;;;;;;1885679;76;21150;-84
2023/09/29 10:47:51;;;;;;;3.00;2.47;;;22.40;99.90;;;;;;1885550;76;21140;-84
2023/09/29 10:50:43;;;;;;;2.60;2.27;;;22.50;99.90;;;;;;1885733;76;21109;-84
2023/09/29 10:53:40;;;;;;;5.80;2.72;;;22.50;99.90;;;;;;1885641;76;21542;-84
2023/09/29 10:56:31;;;;;;;4.55;2.62;;;22.40;99.90;;;;;;1885666;76;21110;-84
2023/09/29 10:59:23;;;;;;;4.45;2.70;;;22.60;99.90;;;;;;1885730;76;21168;-83
2023/09/29 11:02:14;;;;;;;5.25;2.70;;;22.70;99.90;;;;;;1885804;76;21164;-84
2023/09/29 11:05:10;;;;;;;7.20;2.92;;;22.70;99.90;;;;;;1885790;76;21119;-84
2023/09/29 11:08:01;;;;;;;4.50;2.60;;;22.90;99.90;;;;;;1885638;76;21183;-85
2023/09/29 11:10:57;;;;;;;2.75;2.27;;;23.00;99.90;;;;;;1885508;76;21578;-84
2023/09/29 11:13:56;;;;;;;5.47;2.83;;;23.10;99.90;;;;;;1885660;76;21211;-84
2023/09/29 11:16:57;;;;;;;3.33;2.60;;;23.10;99.90;;;;;;1885866;76;21113;-83
2023/09/29 11:19:58;;;;;;;4.15;2.60;;;23.20;99.90;;;;;;1885524;76;21121;-83
2023/09/29 11:25:29;;;;;;;4.60;2.77;;;23.40;99.90;;;;;;1956989;72;22160;-85
2023/09/29 11:28:21;;;;;;;4.53;2.80;;;23.50;99.90;;;;;;1916578;75;21150;-85
2023/09/29 11:31:12;;;;;;;4.20;2.20;;;23.60;99.90;;;;;;1916721;75;21111;-83
2023/09/29 11:34:06;;;;;;;4.60;2.67;;;23.60;99.90;;;;;;1916702;75;21095;-83
2023/09/29 11:36:58;;;;;;;3.40;2.67;;;23.70;99.90;;;;;;1916587;75;21092;-83
2023/09/29 11:39:50;;;;;;;3.42;2.60;;;23.90;99.90;;;;;;1916778;75;21114;-85
2023/09/29 11:42:44;;;;;;;3.35;2.62;;;24.00;99.90;;;;;;1917049;75;21166;-83
2023/09/29 11:45:35;;;;;;;4.80;2.62;;;24.00;99.90;;;;;;1916924;75;21055;-85
2023/09/29 11:48:27;;;;;;;3.02;2.33;;;24.00;99.90;;;;;;1916692;75;21098;-84
2023/09/29 11:51:18;;;;;;;3.37;2.85;;;24.10;99.90;;;;;;1916056;75;21052;-84
2023/09/29 11:54:10;;;;;;;4.37;2.37;;;24.10;99.90;;;;;;1916175;75;21106;-84
2023/09/29 11:57:01;;;;;;;4.80;2.47;;;24.20;99.90;;;;;;1916288;75;21171;-84
2023/09/29 11:59:55;;;;;;;2.47;2.00;;;24.20;99.90;;;;;;1916669;75;21164;-83
2023/09/29 12:02:46;;;;;;;4.20;2.55;;;24.30;99.90;;;;;;1916189;75;21106;-83
2023/09/29 12:05:38;;;;;;;3.95;2.50;;;24.40;99.90;;;;;;1916364;75;21621;-83
2023/09/29 12:08:32;;;;;;;3.17;2.22;;;24.50;99.90;;;;;;1916571;75;21123;-83
2023/09/29 12:11:25;;;;;;;4.92;3.55;;;24.70;99.90;;;;;;1916058;75;21078;-85
2023/09/29 12:14:18;;;;;;;3.60;2.87;;;24.80;99.90;;;;;;1916512;75;21098;-85
2023/09/29 12:17:09;;;;;;;6.55;2.83;;;24.90;99.90;;;;;;1916826;75;21055;-84
2023/09/29 12:20:02;;;;;;;4.20;2.83;;;25.00;99.90;;;;;;1916949;75;21133;-84
2023/09/29 12:22:55;;;;;;;4.28;2.90;;;25.10;99.90;;;;;;1916835;75;21083;-83
2023/09/29 12:25:47;;;;;;;4.05;2.60;;;25.10;99.90;;;;;;1923686;74;21522;-83
2023/09/29 12:28:39;;;;;;;4.95;2.77;;;25.30;99.90;;;;;;1926210;74;21087;-83
2023/09/29 12:31:30;;;;;;;8.18;3.12;;;25.40;99.90;;;;;;1926440;74;21102;-83
2023/09/29 12:34:22;;;;;;;4.15;2.45;;;25.50;99.90;;;;;;1926166;74;21156;-84
2023/09/29 12:37:13;;;;;;;5.42;2.80;;;25.60;99.90;;;;;;1925468;74;21118;-83
2023/09/29 12:40:09;;;;;;;7.22;3.17;;;25.80;99.90;;;;;;1925928;74;21152;-86
2023/09/29 12:43:01;;;;;;;6.12;2.37;;;25.90;99.90;;;;;;1926025;74;21071;-83
2023/09/29 12:45:52;;;;;;;6.12;2.55;;;26.10;99.90;;;;;;1925762;74;21094;-84
2023/09/29 12:48:44;;;;;;;4.37;2.85;;;26.20;99.90;;;;;;1925506;74;21482;-83
2023/09/29 12:51:35;;;;;;;5.35;2.30;;;26.40;99.90;;;;;;1925875;74;21090;-84
2023/09/29 12:54:28;;;;;;;3.62;2.30;;;26.40;99.90;;;;;;1925703;74;21592;-83
2023/09/29 12:57:19;;;;;;;4.35;2.65;;;26.50;99.90;;;;;;1925958;74;21095;-84
2023/09/29 13:00:18;;;;;;;5.70;2.45;;;26.50;99.90;;;;;;1925500;74;21110;-84
2023/09/29 13:03:08;;;;;;;3.85;2.30;;;26.60;99.90;;;;;;1925576;74;21095;-84
2023/09/29 13:06:03;;;;;;;3.60;2.20;;;26.70;99.90;;;;;;1925479;74;21351;-83
2023/09/29 13:08:54;;;;;;;2.67;1.77;;;26.80;99.90;;;;;;1925556;74;21216;-83
2023/09/29 13:11:50;;;;;;;2.58;2.00;;;26.80;99.90;;;;;;1925597;74;21114;-85
2023/09/29 13:14:42;;;;;;;3.50;2.00;;;26.80;99.90;;;;;;1925291;74;21090;-85
2023/09/29 13:17:35;;;;;;;3.17;1.87;;;26.60;99.90;;;;;;1925409;74;21458;-84
2023/09/29 13:20:26;;;;;;;4.05;2.30;;;26.60;99.90;;;;;;1925185;74;21261;-84
2023/09/29 13:23:18;;;;;;;3.77;2.22;;;26.70;99.90;;;;;;1925402;74;21087;-84
2023/09/29 13:26:10;;;;;;;2.77;2.40;;;26.80;99.90;;;;;;1914453;74;21076;-83
2023/09/29 13:29:02;;;;;;;7.40;1.92;;;27.00;99.90;;;;;;1903747;75;21563;-84
2023/09/29 13:31:53;;;;;;;2.17;1.80;;;27.10;99.90;;;;;;1903313;75;21217;-83
2023/09/29 13:34:46;;;;;;;1.90;1.70;;;27.20;99.90;;;;;;1869351;75;21193;-84
2023/09/29 13:37:38;;;;;;;2.37;2.00;;;27.20;99.90;;;;;;1859249;77;21094;-85
2023/09/29 13:40:29;;;;;;;4.08;2.52;;;27.40;99.90;;;;;;1859237;77;21526;-83
2023/09/29 13:43:21;;;;;;;2.60;1.90;;;27.60;99.90;;;;;;1859360;77;21168;-83
2023/09/29 13:46:13;;;;;;;2.37;1.90;;;27.60;99.90;;;;;;1859189;77;21110;-83
2023/09/29 13:49:05;;;;;;;3.45;3.15;;;27.50;99.90;;;;;;1859203;77;21066;-84
2023/09/29 13:51:56;;;;;;;3.83;1.87;;;27.40;99.90;;;;;;1858650;77;21197;-84
2023/09/29 13:54:49;;;;;;;2.40;1.75;;;27.30;99.90;;;;;;1859054;77;21113;-84
2023/09/29 13:57:41;;;;;;;3.75;1.80;;;27.30;99.90;;;;;;1870856;77;21109;-84
2023/09/29 14:00:32;;;;;;;1.90;1.45;;;27.20;99.90;;;;;;1859100;77;21090;-83
2023/09/29 14:03:24;;;;;;;3.92;2.12;;;27.20;99.90;;;;;;1859223;77;21155;-83
2023/09/29 14:06:18;;;;;;;6.20;2.00;;;27.20;99.90;;;;;;1858948;77;21129;-85
2023/09/29 14:09:12;;;;;;;5.65;2.22;;;27.20;99.90;;;;;;1859118;77;21206;-84
2023/09/29 14:12:08;;;;;;;2.15;1.40;;;27.20;99.90;;;;;;1871120;77;21124;-84
2023/09/29 14:14:59;;;;;;;5.12;2.37;;;27.10;99.90;;;;;;1870767;77;21054;-84
2023/09/29 14:17:51;;;;;;;4.75;2.15;;;27.00;99.90;;;;;;1871020;77;21158;-84
2023/09/29 14:20:43;;;;;;;1.50;1.40;;;27.60;99.90;;;;;;1870984;77;21241;-84
2023/09/29 14:23:35;;;;;;;1.70;1.60;;;28.10;99.90;;;;;;1871069;77;21129;-84
2023/09/29 14:26:27;;;;;;;4.80;2.12;;;28.60;99.90;;;;;;1859026;76;21649;-84
2023/09/29 14:29:19;;;;;;;4.33;2.08;;;29.00;99.90;;;;;;1858595;77;21137;-84
2023/09/29 14:32:10;;;;;;;1.82;1.20;;;30.20;99.90;;;;;;1870912;77;21221;-84
2023/09/29 14:35:02;;;;;;;3.25;2.22;;;31.50;99.70;;;;;;1859115;77;21117;-84
2023/09/29 14:37:56;;;;;;;3.02;1.50;;;32.20;96.30;;;;;;1859032;77;21070;-84
2023/09/29 14:40:47;;;;;;;3.95;1.70;;;32.70;96.60;;;;;;1870619;77;21105;-84
2023/09/29 14:43:53;;;;;;;2.33;1.60;;;31.30;97.00;;;;;;1870867;77;21132;-84
2023/09/29 14:46:45;;;;;;;2.65;1.90;;;30.20;99.50;;;;;;1859255;77;21071;-85
2023/09/29 14:49:37;;;;;;;4.95;1.60;;;29.60;99.90;;;;;;1870885;77;21109;-84
2023/09/29 14:52:28;;;;;;;3.00;1.82;;;29.60;99.90;;;;;;1870827;77;21663;-84
2023/09/29 14:55:19;;;;;;;2.75;1.80;;;30.10;99.90;;;;;;1870637;77;21628;-84
2023/09/29 14:58:11;;;;;;;1.80;1.20;;;31.80;98.40;;;;;;1870697;77;21170;-84
2023/09/29 15:01:02;;;;;;;2.80;2.00;;;32.60;96.70;;;;;;1870636;77;21199;-84
2023/09/29 15:03:55;;;;;;;4.30;2.52;;;33.00;94.70;;;;;;1870571;77;21100;-84
2023/09/29 15:06:48;;;;;;;2.98;2.33;;;33.30;93.10;;;;;;1870800;77;21129;-84
2023/09/29 15:09:39;;;;;;;3.17;2.20;;;33.40;92.80;;;;;;1870850;77;21199;-84
2023/09/29 15:12:30;;;;;;;4.80;2.95;;;32.90;93.20;;;;;;1870688;77;21055;-84
2023/09/29 15:15:22;;;;;;;2.60;1.55;;;32.80;92.90;;;;;;1858703;77;21109;-85
2023/09/29 15:18:13;;;;;;;2.70;1.50;;;32.20;93.50;;;;;;1858999;77;21521;-85
2023/09/29 15:21:05;;;;;;;4.05;2.22;;;31.60;94.40;;;;;;1858973;77;21537;-84
2023/09/29 15:23:57;;;;;;;2.58;1.37;;;33.00;93.80;;;;;;1859276;77;21180;-84
2023/09/29 15:26:49;;;;;;;2.98;1.20;;;33.70;91.60;;;;;;1859840;76;21161;-85
2023/09/29 15:29:40;;;;;;;2.92;1.50;;;33.50;91.40;;;;;;1892659;76;21115;-86
2023/09/29 15:32:32;;;;;;;1.90;1.30;;;32.70;92.50;;;;;;1892473;76;21447;-86
2023/09/29 15:35:24;;;;;;;2.85;1.25;;;32.70;92.20;;;;;;1892549;76;21105;-84
2023/09/29 15:38:15;;;;;;;1.40;1.30;;;32.70;92.40;;;;;;1892672;76;21086;-84
2023/09/29 15:41:12;;;;;;;1.37;1.10;;;32.60;91.60;;;;;;1892544;76;21168;-84
2023/09/29 15:44:04;;;;;;;1.57;1.27;;;32.00;91.30;;;;;;1892780;76;21685;-84
2023/09/29 15:46:55;;;;;;;2.10;1.27;;;31.80;92.00;;;;;;1892745;76;21067;-84
2023/09/29 15:49:47;;;;;;;1.72;1.30;;;31.70;91.60;;;;;;1892508;76;21215;-85
2023/09/29 15:52:40;;;;;;;1.77;1.50;;;31.50;92.10;;;;;;1892814;76;21165;-83
2023/09/29 15:55:32;;;;;;;2.17;1.37;;;31.30;92.80;;;;;;1892688;76;21131;-86
2023/09/29 15:58:23;;;;;;;1.70;1.35;;;31.00;93.40;;;;;;1892549;76;21117;-86
2023/09/29 16:01:15;;;;;;;1.52;1.25;;;30.50;93.60;;;;;;1892737;76;21526;-84
2023/09/29 16:04:07;;;;;;;2.30;1.30;;;30.80;93.40;;;;;;1892722;76;21102;-89
2023/09/29 16:07:00;;;;;;;2.62;1.30;;;30.60;93.50;;;;;;1892660;76;21163;-85
2023/09/29 16:09:51;;;;;;;1.98;1.30;;;30.50;93.80;;;;;;1892641;76;21106;-84
2023/09/29 16:12:43;;;;;;;5.45;1.50;;;30.40;94.30;;;;;;1892908;76;21168;-85
2023/09/29 16:15:37;;;;;;;4.12;1.85;;;30.30;94.50;;;;;;1892781;76;21138;-84
2023/09/29 16:18:29;;;;;;;2.33;1.62;;;29.90;95.00;;;;;;1892770;76;21106;-84
2023/09/29 16:21:20;;;;;;;1.85;1.27;;;29.40;95.90;;;;;;1892699;76;21069;-85
2023/09/29 16:24:12;;;;;;;1.80;1.37;;;28.50;97.40;;;;;;1892652;76;21203;-84
2023/09/29 16:27:04;;;;;;;1.80;1.17;;;28.10;98.10;;;;;;1892733;76;21150;-84
2023/09/29 16:29:57;;;;;;;2.27;1.37;;;27.90;98.90;;;;;;1873306;75;21191;-84
2023/09/29 16:32:48;;;;;;;1.95;1.32;;;27.60;98.70;;;;;;1871467;77;21121;-84
2023/09/29 16:35:43;;;;;;;1.42;1.20;;;27.40;99.10;;;;;;1871497;77;21058;-84
2023/09/29 16:38:35;;;;;;;1.22;1.02;;;27.30;98.00;;;;;;1871529;77;21114;-84
2023/09/29 16:41:28;;;;;;;1.92;1.20;;;27.20;97.80;;;;;;1871487;77;21103;-83
2023/09/29 16:44:20;;;;;;;1.95;1.20;;;27.20;98.10;;;;;;1861577;77;21095;-83
2023/09/29 16:47:12;;;;;;;1.90;1.12;;;27.10;97.90;;;;;;1871585;77;21106;-86
2023/09/29 16:50:04;;;;;;;2.92;1.27;;;27.00;97.60;;;;;;1871393;77;21172;-84
2023/09/29 16:52:58;;;;;;;1.47;0.93;;;27.10;97.50;;;;;;1871352;77;21103;-84
2023/09/29 16:55:50;;;;;;;1.45;0.90;;;27.10;97.60;;;;;;1870857;77;21106;-84
2023/09/29 16:58:44;;;;;;;1.17;0.90;;;27.00;97.80;;;;;;1871222;77;21106;-83
2023/09/29 17:01:35;;;;;;;1.05;0.95;;;27.00;97.80;;;;;;1871220;77;21114;-83
2023/09/29 17:04:29;;;;;;;3.40;1.07;;;27.00;97.80;;;;;;1871122;77;21169;-83
2023/09/29 17:07:20;;;;;;;1.45;0.90;;;27.00;98.10;;;;;;1883159;76;21166;-84
2023/09/29 17:10:14;;;;;;;1.47;0.75;;;26.90;98.30;;;;;;1871212;77;21161;-83
2023/09/29 17:13:06;;;;;;;1.22;0.65;;;27.00;98.10;;;;;;1871279;77;21130;-84
2023/09/29 17:15:57;;;;;;;1.15;0.60;;;27.10;97.60;;;;;;1870869;77;21159;-84
2023/09/29 17:18:49;;;;;;;0.85;0.60;;;27.10;97.80;;;;;;1870931;77;21114;-84
2023/09/29 17:21:40;;;;;;;0.98;0.50;;;27.00;97.80;;;;;;1871216;77;21487;-84
2023/09/29 17:24:31;;;;;;;0.78;0.40;;;26.90;98.20;;;;;;1871674;77;21566;-84
2023/09/29 17:27:23;;;;;;;2.55;0.90;;;26.90;98.20;;;;;;1883159;76;21110;-84